Time;durP1;ratioP1;P1;durP2;ratioP2;P2;SDS_P1;SDS_P2;PMS_P1;PMS_P2;Temp;Humidity;BMP_temperature;BMP_pressure;BME280_temperature;BME280_humidity;BME280_pressure;Samples;Min_cycle;Max_cycle;Signal;HPM_P1;HPM_P2
2023/01/03 00:02:15;;;;;;;1.33;1.00;;;;;;;;;;8211039;28;20078;-61
2023/01/03 00:06:17;;;;;;;1.63;1.20;;;;;;;;;;8213845;28;20069;-62
2023/01/03 00:10:17;;;;;;;1.73;1.40;;;;;;;;;;8213847;28;20084;-62
2023/01/03 00:14:18;;;;;;;1.30;1.20;;;;;;;;;;8215744;28;20519;-62
2023/01/03 00:18:19;;;;;;;1.60;1.35;;;;;;;;;;8217098;28;20328;-62
2023/01/03 00:22:19;;;;;;;1.55;1.40;;;;;;;;;;8212320;28;20553;-62
2023/01/03 00:26:19;;;;;;;1.92;1.60;;;;;;;;;;8215306;28;20133;-62
2023/01/03 00:30:20;;;;;;;2.80;1.77;;;;;;;;;;8211993;28;20081;-62
2023/01/03 00:34:20;;;;;;;3.63;1.95;;;;;;;;;;8211851;28;20110;-61
2023/01/03 00:38:20;;;;;;;1.90;1.60;;;;;;;;;;8213138;28;20031;-61
2023/01/03 00:42:20;;;;;;;2.33;1.60;;;;;;;;;;8211765;28;20038;-62
2023/01/03 00:46:21;;;;;;;2.85;1.60;;;;;;;;;;8212001;28;20815;-61
2023/01/03 00:50:21;;;;;;;2.65;1.60;;;;;;;;;;8210444;28;20041;-62
2023/01/03 00:54:21;;;;;;;2.60;1.73;;;;;;;;;;8214109;28;20581;-61
2023/01/03 00:58:21;;;;;;;1.93;1.70;;;;;;;;;;8211575;28;20729;-61
2023/01/03 01:02:21;;;;;;;1.95;1.58;;;;;;;;;;8210409;28;20793;-61
2023/01/03 01:06:28;;;;;;;3.95;1.77;;;;;;;;;;8213924;28;20038;-61
2023/01/03 01:10:28;;;;;;;2.80;1.95;;;;;;;;;;8210723;28;20026;-61
2023/01/03 01:14:29;;;;;;;3.83;1.80;;;;;;;;;;8210280;28;20056;-61
2023/01/03 01:18:30;;;;;;;2.75;1.60;;;;;;;;;;8210868;28;20701;-61
2023/01/03 01:22:30;;;;;;;2.23;1.80;;;;;;;;;;8213872;28;20034;-61
2023/01/03 01:26:30;;;;;;;3.17;1.92;;;;;;;;;;8215495;28;20380;-61
2023/01/03 01:30:30;;;;;;;2.60;1.92;;;;;;;;;;8209504;28;20039;-61
2023/01/03 01:34:31;;;;;;;2.17;1.98;;;;;;;;;;8211238;28;20030;-62
2023/01/03 01:38:31;;;;;;;2.78;2.00;;;;;;;;;;8211597;28;20042;-61
2023/01/03 01:46:51;;;;;;;3.53;2.50;;;;;;;;;;8208310;28;20297;-62
2023/01/03 01:50:53;;;;;;;4.32;2.88;;;;;;;;;;8207323;28;20026;-61
2023/01/03 01:54:54;;;;;;;4.35;2.83;;;;;;;;;;8201173;28;20030;-62
2023/01/03 01:58:54;;;;;;;4.05;2.80;;;;;;;;;;8204219;28;20096;-62
2023/01/03 02:02:55;;;;;;;2.72;2.33;;;;;;;;;;8202256;28;20046;-61
2023/01/03 02:06:56;;;;;;;3.22;3.00;;;;;;;;;;8206145;28;20027;-62
2023/01/03 02:11:02;;;;;;;4.93;3.03;;;;;;;;;;8206185;28;20048;-61
2023/01/03 02:15:17;;;;;;;3.85;2.80;;;;;;;;;;8203239;28;20023;-61
2023/01/03 02:19:31;;;;;;;4.03;3.08;;;;;;;;;;8204590;28;20045;-61
2023/01/03 02:23:50;;;;;;;3.00;2.60;;;;;;;;;;8204151;28;20023;-61
2023/01/03 02:27:50;;;;;;;3.20;2.42;;;;;;;;;;8202819;28;20026;-61
2023/01/03 02:31:56;;;;;;;4.90;2.15;;;;;;;;;;8202432;28;20471;-61
2023/01/03 02:35:59;;;;;;;4.82;2.55;;;;;;;;;;8202860;28;20342;-62
2023/01/03 02:40:14;;;;;;;3.05;2.50;;;;;;;;;;8205546;28;20031;-61
2023/01/03 02:44:22;;;;;;;4.78;2.53;;;;;;;;;;8207153;28;21947;-61
2023/01/03 02:48:34;;;;;;;3.17;2.55;;;;;;;;;;8208278;28;20038;-61
2023/01/03 02:52:35;;;;;;;3.47;2.60;;;;;;;;;;8216769;28;20037;-61
2023/01/03 02:56:48;;;;;;;4.55;2.60;;;;;;;;;;8210347;28;20030;-61
2023/01/03 03:00:51;;;;;;;3.50;2.80;;;;;;;;;;8211164;28;20128;-61
2023/01/03 03:04:55;;;;;;;3.50;2.65;;;;;;;;;;8209541;28;20031;-61
2023/01/03 03:08:55;;;;;;;3.75;2.60;;;;;;;;;;8217210;28;20084;-61
2023/01/03 03:13:13;;;;;;;5.90;2.80;;;;;;;;;;8211910;28;20450;-61
2023/01/03 03:17:19;;;;;;;2.80;2.60;;;;;;;;;;8211942;28;20448;-61
2023/01/03 03:25:38;;;;;;;3.20;2.90;;;;;;;;;;8210063;28;20142;-61
2023/01/03 03:29:39;;;;;;;3.58;2.70;;;;;;;;;;8210671;28;20026;-61
2023/01/03 03:33:59;;;;;;;3.22;2.92;;;;;;;;;;8207654;28;20042;-61
2023/01/03 03:38:00;;;;;;;3.17;2.70;;;;;;;;;;8206700;28;20046;-62
2023/01/03 03:46:39;;;;;;;3.58;2.65;;;;;;;;;;8207062;28;20042;-61
2023/01/03 03:50:41;;;;;;;6.35;2.83;;;;;;;;;;8205858;28;20026;-61
2023/01/03 03:54:45;;;;;;;4.07;2.65;;;;;;;;;;8206593;28;20030;-61
2023/01/03 03:58:48;;;;;;;2.80;2.60;;;;;;;;;;8206094;28;20124;-61
2023/01/03 04:02:49;;;;;;;3.78;2.90;;;;;;;;;;8202918;28;20039;-61
2023/01/03 04:06:50;;;;;;;4.20;3.05;;;;;;;;;;8204815;28;20026;-62
2023/01/03 04:10:50;;;;;;;3.33;3.00;;;;;;;;;;8207607;28;20436;-62
2023/01/03 04:14:50;;;;;;;4.28;2.92;;;;;;;;;;8209684;28;20038;-62
2023/01/03 04:18:50;;;;;;;5.60;2.75;;;;;;;;;;8208541;28;20085;-61
2023/01/03 04:22:50;;;;;;;5.40;2.67;;;;;;;;;;8208547;28;20081;-61
2023/01/03 04:26:51;;;;;;;5.20;2.38;;;;;;;;;;8206970;28;20027;-61
2023/01/03 04:30:51;;;;;;;4.45;2.35;;;;;;;;;;8207853;28;20026;-61
2023/01/03 04:34:51;;;;;;;2.83;2.33;;;;;;;;;;8206368;28;20058;-61
2023/01/03 04:38:51;;;;;;;3.22;2.00;;;;;;;;;;8206059;28;20034;-61
2023/01/03 04:47:10;;;;;;;3.05;2.13;;;;;;;;;;8207580;28;20511;-62
2023/01/03 04:51:10;;;;;;;3.67;2.47;;;;;;;;;;8209757;28;20041;-62
2023/01/03 04:55:12;;;;;;;2.63;2.20;;;;;;;;;;8209390;28;20034;-62
2023/01/03 04:59:12;;;;;;;2.60;2.20;;;;;;;;;;8209470;28;20626;-61
2023/01/03 05:03:12;;;;;;;4.53;2.42;;;;;;;;;;8201636;28;20037;-61
2023/01/03 05:07:12;;;;;;;3.78;2.40;;;;;;;;;;8204656;28;20050;-62
2023/01/03 05:11:13;;;;;;;6.15;3.25;;;;;;;;;;8202967;28;20486;-62
2023/01/03 05:15:13;;;;;;;4.90;3.08;;;;;;;;;;8210332;28;20113;-62
2023/01/03 05:19:13;;;;;;;3.80;2.78;;;;;;;;;;8209826;28;20260;-61
2023/01/03 05:27:33;;;;;;;3.40;3.10;;;;;;;;;;8210824;28;20093;-61
2023/01/03 05:31:33;;;;;;;5.57;3.15;;;;;;;;;;8212035;28;20031;-61
2023/01/03 05:35:33;;;;;;;5.13;3.50;;;;;;;;;;8212948;28;20026;-61
2023/01/03 05:39:33;;;;;;;5.18;3.42;;;;;;;;;;8209399;28;20296;-61
2023/01/03 05:43:34;;;;;;;4.53;3.35;;;;;;;;;;8205799;28;20121;-61
2023/01/03 05:47:34;;;;;;;8.63;4.50;;;;;;;;;;8203205;28;20097;-62
2023/01/03 05:51:34;;;;;;;7.60;3.90;;;;;;;;;;8204396;28;20128;-61
2023/01/03 05:55:35;;;;;;;6.70;4.00;;;;;;;;;;8204335;28;20069;-62
2023/01/03 05:59:35;;;;;;;4.03;3.53;;;;;;;;;;8206566;28;20084;-61
2023/01/03 06:03:35;;;;;;;5.32;3.95;;;;;;;;;;8200855;28;20145;-62
2023/01/03 06:07:36;;;;;;;7.63;3.90;;;;;;;;;;8203382;28;20023;-61
2023/01/03 06:11:37;;;;;;;3.38;3.08;;;;;;;;;;8201671;28;20124;-61
2023/01/03 06:15:38;;;;;;;4.88;3.03;;;;;;;;;;8203337;28;20302;-62
2023/01/03 06:19:38;;;;;;;6.55;2.42;;;;;;;;;;8210021;28;20026;-62
2023/01/03 06:23:38;;;;;;;3.22;2.15;;;;;;;;;;8208388;28;20503;-61
2023/01/03 06:27:38;;;;;;;5.15;2.83;;;;;;;;;;8209084;28;20019;-61
2023/01/03 06:31:39;;;;;;;5.78;3.40;;;;;;;;;;8209835;28;20042;-62
2023/01/03 06:35:39;;;;;;;32.25;17.42;;;;;;;;;;8214364;28;20033;-60
2023/01/03 06:39:39;;;;;;;38.97;20.30;;;;;;;;;;8214894;28;20407;-61
2023/01/03 06:43:40;;;;;;;25.80;12.55;;;;;;;;;;8214065;28;20450;-62
2023/01/03 06:56:18;;;;;;;6.40;3.72;;;;;;;;;;8211724;28;20100;-61
2023/01/03 07:00:18;;;;;;;4.30;3.58;;;;;;;;;;8216151;28;20030;-61
2023/01/03 07:04:19;;;;;;;4.65;3.28;;;;;;;;;;8205420;28;20113;-62
2023/01/03 07:08:19;;;;;;;4.25;3.00;;;;;;;;;;8210382;28;20217;-61
2023/01/03 07:16:39;;;;;;;6.18;3.33;;;;;;;;;;8209181;28;20400;-61
2023/01/03 07:20:41;;;;;;;5.78;3.35;;;;;;;;;;8217105;28;20057;-61
2023/01/03 07:24:41;;;;;;;4.68;2.88;;;;;;;;;;8213658;28;20027;-61
2023/01/03 07:28:41;;;;;;;4.07;3.28;;;;;;;;;;8218901;28;20284;-61
2023/01/03 07:32:41;;;;;;;3.90;3.60;;;;;;;;;;8212266;28;20039;-61
2023/01/03 07:36:41;;;;;;;7.35;3.70;;;;;;;;;;8211374;28;20023;-62
2023/01/03 07:40:42;;;;;;;6.40;4.65;;;;;;;;;;8211243;28;20030;-61
2023/01/03 07:44:42;;;;;;;4.95;4.28;;;;;;;;;;8212521;28;20106;-61
2023/01/03 07:48:43;;;;;;;7.60;4.57;;;;;;;;;;8216043;28;20044;-61
2023/01/03 07:52:43;;;;;;;6.88;4.78;;;;;;;;;;8225067;28;20023;-61
2023/01/03 07:56:43;;;;;;;6.22;4.70;;;;;;;;;;8224185;28;20089;-61
2023/01/03 08:00:43;;;;;;;7.22;4.80;;;;;;;;;;8218940;28;20043;-61
2023/01/03 08:04:43;;;;;;;6.45;4.50;;;;;;;;;;8218388;28;20038;-61
2023/01/03 08:08:43;;;;;;;6.88;4.55;;;;;;;;;;8219273;28;20034;-62
2023/01/03 08:17:02;;;;;;;9.68;4.88;;;;;;;;;;8217587;28;20050;-62
2023/01/03 08:21:03;;;;;;;7.78;4.22;;;;;;;;;;8220070;28;20050;-61
2023/01/03 08:25:03;;;;;;;4.28;3.88;;;;;;;;;;8220115;28;20231;-61
2023/01/03 08:29:03;;;;;;;4.55;4.00;;;;;;;;;;8219916;28;20625;-62
2023/01/03 08:33:07;;;;;;;5.18;3.72;;;;;;;;;;8221173;28;20077;-62
2023/01/03 08:37:09;;;;;;;4.60;3.47;;;;;;;;;;8220476;28;20022;-61
2023/01/03 08:41:11;;;;;;;5.03;3.38;;;;;;;;;;8216620;28;20018;-62
2023/01/03 08:45:14;;;;;;;3.70;3.28;;;;;;;;;;8217198;28;20029;-60
2023/01/03 08:49:14;;;;;;;3.15;2.58;;;;;;;;;;8213961;28;20042;-61
2023/01/03 08:53:15;;;;;;;3.03;2.50;;;;;;;;;;8210398;28;20023;-60
2023/01/03 08:57:15;;;;;;;4.47;2.20;;;;;;;;;;8212572;28;20493;-61
2023/01/03 09:01:16;;;;;;;3.17;2.40;;;;;;;;;;8211746;28;20541;-62
2023/01/03 09:05:16;;;;;;;5.70;3.00;;;;;;;;;;8211078;28;20498;-62
2023/01/03 09:09:16;;;;;;;6.07;3.13;;;;;;;;;;8213026;28;20034;-61
2023/01/03 09:13:16;;;;;;;3.20;2.40;;;;;;;;;;8209512;28;20026;-61
2023/01/03 09:17:16;;;;;;;18.52;6.50;;;;;;;;;;8212346;28;20481;-61
2023/01/03 09:21:16;;;;;;;13.25;5.38;;;;;;;;;;8213388;28;20057;-62
2023/01/03 09:25:17;;;;;;;9.80;4.38;;;;;;;;;;8208145;28;20026;-61
2023/01/03 09:29:17;;;;;;;10.25;4.80;;;;;;;;;;8210524;28;20344;-61
2023/01/03 09:33:18;;;;;;;11.43;4.82;;;;;;;;;;8202898;28;20050;-61
2023/01/03 09:37:18;;;;;;;6.60;2.75;;;;;;;;;;8201202;28;20030;-61
2023/01/03 09:41:21;;;;;;;2.30;2.10;;;;;;;;;;8198274;28;20045;-61
2023/01/03 09:45:34;;;;;;;8.93;3.90;;;;;;;;;;8198069;28;20027;-62
2023/01/03 09:49:37;;;;;;;3.55;2.60;;;;;;;;;;8196472;28;20126;-61
2023/01/03 10:06:54;;;;;;;4.50;3.55;;;;;;;;;;8200412;28;20517;-61
2023/01/03 10:11:08;;;;;;;5.80;3.42;;;;;;;;;;8198090;28;20026;-61
2023/01/03 10:15:26;;;;;;;6.18;2.97;;;;;;;;;;8202389;28;20019;-62
2023/01/03 10:19:29;;;;;;;3.38;2.13;;;;;;;;;;8201823;28;20351;-62
2023/01/03 10:23:30;;;;;;;3.38;1.98;;;;;;;;;;8204036;28;20125;-61
2023/01/03 10:27:32;;;;;;;3.50;2.45;;;;;;;;;;8205138;28;20019;-62
2023/01/03 10:31:32;;;;;;;4.00;2.10;;;;;;;;;;8203352;28;20136;-61
2023/01/03 10:35:33;;;;;;;4.88;2.33;;;;;;;;;;8205672;28;20031;-61
2023/01/03 10:39:33;;;;;;;7.68;3.28;;;;;;;;;;8207037;28;20418;-62
2023/01/03 10:43:38;;;;;;;4.70;3.10;;;;;;;;;;8205903;28;20030;-61
2023/01/03 10:47:38;;;;;;;3.13;2.42;;;;;;;;;;8206546;28;20039;-62
2023/01/03 10:51:47;;;;;;;3.40;2.30;;;;;;;;;;8205556;28;20092;-61
2023/01/03 10:55:49;;;;;;;3.20;2.35;;;;;;;;;;8205866;28;20581;-62
2023/01/03 10:59:49;;;;;;;4.35;2.17;;;;;;;;;;8206096;28;20122;-62
2023/01/03 11:04:12;;;;;;;4.05;2.53;;;;;;;;;;8207513;28;20077;-62
2023/01/03 11:08:17;;;;;;;5.70;2.53;;;;;;;;;;8209070;28;20014;-62
2023/01/03 11:12:28;;;;;;;6.55;2.47;;;;;;;;;;8209979;28;20030;-61
2023/01/03 11:16:29;;;;;;;3.65;2.30;;;;;;;;;;8211214;28;20129;-61
2023/01/03 11:20:48;;;;;;;3.53;2.45;;;;;;;;;;8212604;28;20041;-61
2023/01/03 11:24:56;;;;;;;5.63;2.60;;;;;;;;;;8208575;28;20029;-62
2023/01/03 11:28:59;;;;;;;4.53;2.28;;;;;;;;;;8210021;28;20022;-62
2023/01/03 11:33:15;;;;;;;4.10;2.10;;;;;;;;;;8209943;28;20153;-62
2023/01/03 11:37:17;;;;;;;4.55;2.63;;;;;;;;;;8212267;28;20149;-61
2023/01/03 11:41:35;;;;;;;5.20;2.45;;;;;;;;;;8207285;28;21277;-61
2023/01/03 11:45:43;;;;;;;3.63;2.40;;;;;;;;;;8208889;28;20047;-62
2023/01/03 11:49:51;;;;;;;4.38;2.58;;;;;;;;;;8209174;28;20048;-62
2023/01/03 11:54:00;;;;;;;5.25;2.50;;;;;;;;;;8219908;28;20054;-62
2023/01/03 11:58:04;;;;;;;4.18;2.55;;;;;;;;;;8208817;28;20430;-61
2023/01/03 12:02:20;;;;;;;5.53;3.22;;;;;;;;;;8207115;28;20050;-62
2023/01/03 12:06:21;;;;;;;4.43;2.60;;;;;;;;;;8208997;28;20134;-63
2023/01/03 12:10:37;;;;;;;4.38;2.65;;;;;;;;;;8205083;28;20034;-62
2023/01/03 12:14:40;;;;;;;5.25;2.85;;;;;;;;;;8209445;28;20484;-62
2023/01/03 12:18:40;;;;;;;3.33;2.50;;;;;;;;;;8210883;28;20053;-62
2023/01/03 12:22:46;;;;;;;5.85;4.15;;;;;;;;;;8203918;28;20030;-62
2023/01/03 12:26:52;;;;;;;5.93;3.10;;;;;;;;;;8207870;28;20434;-62
2023/01/03 12:30:55;;;;;;;5.95;2.63;;;;;;;;;;8204202;28;20035;-62
2023/01/03 12:35:17;;;;;;;4.95;2.30;;;;;;;;;;8207742;28;20140;-62
2023/01/03 12:39:30;;;;;;;5.70;2.30;;;;;;;;;;8206791;28;20206;-62
2023/01/03 12:43:49;;;;;;;4.03;2.15;;;;;;;;;;8201661;28;20517;-63
2023/01/03 12:48:10;;;;;;;2.17;1.80;;;;;;;;;;8206867;28;20634;-62
2023/01/03 12:52:12;;;;;;;2.80;2.10;;;;;;;;;;8205227;28;20427;-63
2023/01/03 12:56:21;;;;;;;3.97;2.28;;;;;;;;;;8202874;28;20781;-62
2023/01/03 13:00:39;;;;;;;5.72;2.17;;;;;;;;;;8216626;28;20042;-63
2023/01/03 13:04:40;;;;;;;4.68;2.30;;;;;;;;;;8204553;28;20026;-62
2023/01/03 13:08:49;;;;;;;3.90;2.08;;;;;;;;;;8206262;28;20030;-62
2023/01/03 13:12:52;;;;;;;3.08;2.22;;;;;;;;;;8203284;28;20142;-63
2023/01/03 13:16:53;;;;;;;2.90;1.85;;;;;;;;;;8205963;28;20064;-62
2023/01/03 13:20:54;;;;;;;2.47;1.70;;;;;;;;;;8205616;28;20034;-63
2023/01/03 13:25:14;;;;;;;4.28;2.20;;;;;;;;;;8200021;28;20319;-62
2023/01/03 13:29:32;;;;;;;3.92;2.03;;;;;;;;;;8203843;28;20034;-62
2023/01/03 13:33:41;;;;;;;5.30;2.45;;;;;;;;;;8203124;28;20035;-62
2023/01/03 13:37:42;;;;;;;3.65;2.50;;;;;;;;;;8201594;28;20041;-62
2023/01/03 13:41:43;;;;;;;6.10;2.42;;;;;;;;;;8203132;28;20080;-62
2023/01/03 13:45:43;;;;;;;3.92;2.10;;;;;;;;;;8199168;28;20039;-62
2023/01/03 13:49:47;;;;;;;4.72;2.15;;;;;;;;;;8203731;28;20112;-63
2023/01/03 13:53:56;;;;;;;9.95;3.00;;;;;;;;;;8204770;28;20029;-62
2023/01/03 13:57:56;;;;;;;5.00;2.72;;;;;;;;;;8200697;28;20026;-62
2023/01/03 14:02:06;;;;;;;4.30;2.10;;;;;;;;;;8205681;28;20261;-62
2023/01/03 14:06:30;;;;;;;4.90;2.47;;;;;;;;;;8200051;28;20496;-63
2023/01/03 14:10:30;;;;;;;3.22;2.30;;;;;;;;;;8199514;28;20030;-63
2023/01/03 14:14:33;;;;;;;4.88;2.80;;;;;;;;;;8200247;28;20109;-62
2023/01/03 14:18:34;;;;;;;5.73;2.80;;;;;;;;;;8198158;28;20042;-62
2023/01/03 14:22:39;;;;;;;4.28;3.05;;;;;;;;;;8199364;28;20026;-62
2023/01/03 14:26:39;;;;;;;4.38;2.72;;;;;;;;;;8200914;28;20125;-62
2023/01/03 14:30:40;;;;;;;4.97;2.90;;;;;;;;;;8200514;28;20066;-62
2023/01/03 14:34:40;;;;;;;4.28;2.90;;;;;;;;;;8198067;28;20822;-62
2023/01/03 14:39:07;;;;;;;4.90;2.80;;;;;;;;;;8201617;28;20047;-62
2023/01/03 14:43:10;;;;;;;6.22;3.03;;;;;;;;;;8205508;28;20037;-62
2023/01/03 14:47:13;;;;;;;4.70;2.80;;;;;;;;;;8208052;28;20035;-62
2023/01/03 14:51:14;;;;;;;5.38;2.47;;;;;;;;;;8220881;28;20014;-62
2023/01/03 14:55:15;;;;;;;6.22;2.80;;;;;;;;;;8209386;28;20114;-62
2023/01/03 14:59:18;;;;;;;4.75;2.70;;;;;;;;;;8211446;28;20039;-62
2023/01/03 15:03:18;;;;;;;6.50;2.80;;;;;;;;;;8201810;28;20069;-62
2023/01/03 15:07:24;;;;;;;6.03;2.90;;;;;;;;;;8209692;28;20033;-62
2023/01/03 15:11:29;;;;;;;6.22;3.40;;;;;;;;;;8208810;28;20389;-62
2023/01/03 15:15:35;;;;;;;6.57;3.15;;;;;;;;;;8206077;28;21157;-62
2023/01/03 15:19:37;;;;;;;7.78;3.15;;;;;;;;;;8207765;28;20038;-62
2023/01/03 15:23:39;;;;;;;4.90;2.60;;;;;;;;;;8207440;28;20022;-62
2023/01/03 15:27:40;;;;;;;6.25;2.72;;;;;;;;;;8206423;28;20037;-62
2023/01/03 15:31:48;;;;;;;4.45;2.70;;;;;;;;;;8204427;28;20046;-62
2023/01/03 15:35:49;;;;;;;8.73;2.88;;;;;;;;;;8205051;28;20041;-62
2023/01/03 15:39:51;;;;;;;8.45;3.65;;;;;;;;;;8207414;28;20039;-62
2023/01/03 15:43:51;;;;;;;8.07;3.90;;;;;;;;;;8205078;28;20037;-62
2023/01/03 15:47:54;;;;;;;6.47;3.58;;;;;;;;;;8204871;28;20030;-62
2023/01/03 15:51:54;;;;;;;4.72;3.58;;;;;;;;;;8206399;28;20101;-62
2023/01/03 15:56:14;;;;;;;5.13;3.50;;;;;;;;;;8206511;28;20154;-62
2023/01/03 16:00:16;;;;;;;5.40;4.03;;;;;;;;;;8203829;28;20137;-62
2023/01/03 16:04:17;;;;;;;7.03;3.30;;;;;;;;;;8205606;28;20018;-62
2023/01/03 16:08:20;;;;;;;5.32;3.20;;;;;;;;;;8205206;28;20030;-62
2023/01/03 16:12:23;;;;;;;7.18;3.72;;;;;;;;;;8204279;28;20058;-62
2023/01/03 16:16:25;;;;;;;4.30;3.03;;;;;;;;;;8205600;28;20097;-62
2023/01/03 16:20:25;;;;;;;6.45;3.35;;;;;;;;;;8205888;28;20033;-62
2023/01/03 16:24:25;;;;;;;4.43;3.08;;;;;;;;;;8203302;28;20022;-62
2023/01/03 16:28:26;;;;;;;6.70;3.58;;;;;;;;;;8205406;28;20566;-62
2023/01/03 16:32:27;;;;;;;6.97;3.20;;;;;;;;;;8203597;28;20039;-61
2023/01/03 16:36:32;;;;;;;5.32;3.08;;;;;;;;;;8203178;28;20054;-62
2023/01/03 16:40:32;;;;;;;5.93;3.15;;;;;;;;;;8203482;28;20041;-61
2023/01/03 16:44:33;;;;;;;6.65;4.07;;;;;;;;;;8202125;28;20077;-62
2023/01/03 16:48:36;;;;;;;9.38;5.10;;;;;;;;;;8202557;28;20034;-62
2023/01/03 16:52:38;;;;;;;9.90;5.32;;;;;;;;;;8202249;28;20030;-62
2023/01/03 16:56:38;;;;;;;8.32;5.55;;;;;;;;;;8203830;28;20035;-62
2023/01/03 17:00:38;;;;;;;10.18;5.63;;;;;;;;;;8203504;28;20042;-62
2023/01/03 17:04:39;;;;;;;8.30;4.70;;;;;;;;;;8200158;28;20034;-62
2023/01/03 17:08:40;;;;;;;5.65;4.20;;;;;;;;;;8200706;28;20289;-62
2023/01/03 17:12:40;;;;;;;7.97;3.97;;;;;;;;;;8208819;28;20033;-63
2023/01/03 17:16:41;;;;;;;7.32;4.03;;;;;;;;;;8206077;28;20833;-62
2023/01/03 17:20:41;;;;;;;7.25;3.40;;;;;;;;;;8205270;28;20026;-62
2023/01/03 17:24:42;;;;;;;6.43;3.87;;;;;;;;;;8200462;28;20023;-62
2023/01/03 17:28:42;;;;;;;5.25;3.63;;;;;;;;;;8201044;28;20281;-62
2023/01/03 17:32:43;;;;;;;5.82;3.65;;;;;;;;;;8201334;28;20045;-62
2023/01/03 17:36:43;;;;;;;4.93;3.22;;;;;;;;;;8202314;28;20374;-62
2023/01/03 17:40:45;;;;;;;6.10;4.10;;;;;;;;;;8204491;28;20177;-62
2023/01/03 17:49:24;;;;;;;4.47;3.20;;;;;;;;;;8203415;28;20101;-62
2023/01/03 17:53:24;;;;;;;6.22;3.05;;;;;;;;;;8204165;28;20941;-62
2023/01/03 17:57:24;;;;;;;6.13;4.13;;;;;;;;;;8203361;28;20439;-61
2023/01/03 18:01:25;;;;;;;8.45;5.50;;;;;;;;;;8205211;28;21026;-62
2023/01/03 18:05:27;;;;;;;5.10;3.42;;;;;;;;;;8204845;28;20129;-61
2023/01/03 18:09:29;;;;;;;5.70;3.17;;;;;;;;;;8204400;28;20051;-61
2023/01/03 18:13:33;;;;;;;4.78;3.45;;;;;;;;;;8202512;28;20797;-61
2023/01/03 18:17:33;;;;;;;3.78;3.00;;;;;;;;;;8206780;28;20085;-62
2023/01/03 18:21:34;;;;;;;5.55;3.10;;;;;;;;;;8208376;28;20025;-61
2023/01/03 18:25:34;;;;;;;5.10;3.45;;;;;;;;;;8208359;28;20027;-62
2023/01/03 18:29:34;;;;;;;8.95;5.22;;;;;;;;;;8210048;28;20057;-62
2023/01/03 18:33:35;;;;;;;7.45;3.85;;;;;;;;;;8206197;28;20872;-62
2023/01/03 18:37:36;;;;;;;6.25;3.20;;;;;;;;;;8211283;28;20023;-62
2023/01/03 18:41:36;;;;;;;5.32;2.75;;;;;;;;;;8209954;28;20031;-61
2023/01/03 18:45:36;;;;;;;4.47;2.20;;;;;;;;;;8203213;28;20546;-61
2023/01/03 18:49:36;;;;;;;3.17;1.92;;;;;;;;;;8205390;28;20661;-62
2023/01/03 18:53:38;;;;;;;3.10;1.95;;;;;;;;;;8199180;28;20062;-62
2023/01/03 18:57:38;;;;;;;6.82;2.03;;;;;;;;;;8200122;28;20023;-61
2023/01/03 19:01:38;;;;;;;5.15;1.80;;;;;;;;;;8199183;28;20042;-62
2023/01/03 19:09:49;;;;;;;2.88;1.80;;;;;;;;;;8404942;22;20053;-71
2023/01/03 19:13:50;;;;;;;3.20;2.03;;;;;;;;;;8218906;28;20149;-71
2023/01/03 19:17:51;;;;;;;2.88;1.98;;;;;;;;;;8215026;28;20294;-71
2023/01/03 19:21:51;;;;;;;6.20;2.75;;;;;;;;;;8214177;28;20037;-72
2023/01/03 19:25:53;;;;;;;6.53;2.90;;;;;;;;;;8213002;28;20113;-72
2023/01/03 19:29:53;;;;;;;6.72;3.35;;;;;;;;;;8214985;28;20034;-71
2023/01/03 19:33:53;;;;;;;5.95;3.42;;;;;;;;;;8200413;28;20101;-72
2023/01/03 19:37:54;;;;;;;7.57;3.10;;;;;;;;;;8215734;28;20749;-72
2023/01/03 19:46:15;;;;;;;3.58;2.35;;;;;;;;;;8215163;28;20037;-72
2023/01/03 19:50:20;;;;;;;4.28;2.25;;;;;;;;;;8215014;28;20037;-72
2023/01/03 19:54:21;;;;;;;4.60;2.20;;;;;;;;;;8215877;28;20058;-70
2023/01/03 19:58:23;;;;;;;4.15;2.40;;;;;;;;;;8215964;28;20030;-71
2023/01/03 20:02:34;;;;;;;8.10;2.38;;;;;;;;;;8212979;28;20409;-72
2023/01/03 20:06:34;;;;;;;7.95;2.67;;;;;;;;;;8213664;28;20026;-72
2023/01/03 20:10:39;;;;;;;5.70;2.75;;;;;;;;;;8213007;28;20031;-72
2023/01/03 20:14:42;;;;;;;5.47;2.78;;;;;;;;;;8214448;28;20088;-71
2023/01/03 20:18:42;;;;;;;6.70;3.00;;;;;;;;;;8213085;28;20050;-71
2023/01/03 20:22:43;;;;;;;9.93;3.60;;;;;;;;;;8220801;28;20038;-72
2023/01/03 20:26:43;;;;;;;6.03;3.60;;;;;;;;;;8214531;28;20506;-73
2023/01/03 20:30:44;;;;;;;6.93;3.08;;;;;;;;;;8212297;28;20041;-72
2023/01/03 20:34:45;;;;;;;4.70;3.20;;;;;;;;;;8212057;28;20026;-71
2023/01/03 20:38:46;;;;;;;5.57;2.53;;;;;;;;;;8213682;28;20030;-73
2023/01/03 20:42:46;;;;;;;4.75;2.35;;;;;;;;;;8224685;28;20128;-71
2023/01/03 20:46:47;;;;;;;7.75;2.95;;;;;;;;;;8214376;28;20042;-71
2023/01/03 20:50:48;;;;;;;6.40;3.10;;;;;;;;;;8212285;28;20026;-70
2023/01/03 20:54:48;;;;;;;11.50;2.80;;;;;;;;;;8219391;28;20038;-71
2023/01/03 20:58:48;;;;;;;4.00;2.40;;;;;;;;;;8213151;28;20458;-71
2023/01/03 21:02:48;;;;;;;6.10;2.45;;;;;;;;;;8206629;28;20181;-71
2023/01/03 21:06:51;;;;;;;5.78;2.13;;;;;;;;;;8213394;28;20451;-70
2023/01/03 21:10:51;;;;;;;5.68;1.95;;;;;;;;;;8216555;28;20068;-72
2023/01/03 21:14:52;;;;;;;3.35;2.00;;;;;;;;;;8211949;28;20848;-72
2023/01/03 21:18:52;;;;;;;4.38;1.80;;;;;;;;;;8210147;28;20030;-72
2023/01/03 21:22:52;;;;;;;3.72;2.05;;;;;;;;;;8214712;28;21468;-71
2023/01/03 21:26:52;;;;;;;3.20;1.88;;;;;;;;;;8212190;28;20038;-72
2023/01/03 21:30:53;;;;;;;4.63;2.30;;;;;;;;;;8213548;28;20514;-71
2023/01/03 21:34:53;;;;;;;3.35;2.10;;;;;;;;;;8216537;28;20033;-71
2023/01/03 21:38:53;;;;;;;7.93;1.80;;;;;;;;;;8213359;28;20034;-72
2023/01/03 21:42:58;;;;;;;4.17;2.40;;;;;;;;;;8211144;28;20253;-71
2023/01/03 21:46:58;;;;;;;3.78;1.67;;;;;;;;;;8211538;28;21372;-71
2023/01/03 21:51:02;;;;;;;5.40;2.13;;;;;;;;;;8216904;28;20022;-71
2023/01/03 21:55:02;;;;;;;4.45;1.73;;;;;;;;;;8213225;28;20029;-70
2023/01/03 21:59:03;;;;;;;4.95;1.92;;;;;;;;;;8212356;28;20034;-70
2023/01/03 22:07:22;;;;;;;3.70;1.70;;;;;;;;;;8211749;28;20061;-72
2023/01/03 22:11:23;;;;;;;4.80;1.90;;;;;;;;;;8214370;28;20327;-72
2023/01/03 22:15:23;;;;;;;4.63;1.90;;;;;;;;;;8210883;28;20502;-71
2023/01/03 22:19:24;;;;;;;3.80;2.10;;;;;;;;;;8209981;28;20735;-72
2023/01/03 22:23:24;;;;;;;2.63;1.98;;;;;;;;;;8211703;28;20841;-71
2023/01/03 22:27:24;;;;;;;5.85;2.13;;;;;;;;;;8213943;28;20035;-71
2023/01/03 22:31:24;;;;;;;8.15;3.05;;;;;;;;;;8207494;28;20042;-72
2023/01/03 22:35:25;;;;;;;6.15;3.47;;;;;;;;;;8215910;28;20114;-71
2023/01/03 22:39:25;;;;;;;7.63;3.53;;;;;;;;;;8208328;28;20793;-72
2023/01/03 22:43:25;;;;;;;4.93;3.08;;;;;;;;;;8211180;28;20867;-71
2023/01/03 22:47:27;;;;;;;2.55;1.80;;;;;;;;;;8215641;28;20035;-70
2023/01/03 22:51:27;;;;;;;3.78;1.83;;;;;;;;;;8211464;28;20041;-71
2023/01/03 22:55:27;;;;;;;3.70;1.90;;;;;;;;;;8212642;28;20540;-71
2023/01/03 22:59:29;;;;;;;2.72;1.90;;;;;;;;;;8214610;28;20030;-71
2023/01/03 23:03:30;;;;;;;4.28;2.60;;;;;;;;;;8219499;28;20071;-72
2023/01/03 23:07:30;;;;;;;5.82;3.22;;;;;;;;;;8231211;28;20149;-71
2023/01/03 23:15:49;;;;;;;7.53;2.65;;;;;;;;;;8215312;28;20077;-72
2023/01/03 23:19:50;;;;;;;3.50;2.37;;;;;;;;;;8215249;28;20034;-70
2023/01/03 23:23:50;;;;;;;5.35;2.00;;;;;;;;;;8217078;28;20350;-70
2023/01/03 23:27:50;;;;;;;3.90;2.08;;;;;;;;;;8212714;28;20027;-71
2023/01/03 23:31:51;;;;;;;3.20;2.20;;;;;;;;;;8217719;28;20038;-71
2023/01/03 23:35:51;;;;;;;4.32;2.17;;;;;;;;;;8215653;28;20023;-70
2023/01/03 23:39:51;;;;;;;1.88;1.70;;;;;;;;;;8216798;28;20034;-72
2023/01/03 23:43:52;;;;;;;4.40;2.10;;;;;;;;;;8218610;28;20030;-71
2023/01/03 23:47:52;;;;;;;6.45;2.20;;;;;;;;;;8216150;28;20050;-71
2023/01/03 23:51:52;;;;;;;3.70;2.20;;;;;;;;;;8214412;28;20905;-72
2023/01/03 23:55:52;;;;;;;5.38;2.35;;;;;;;;;;8216443;28;20037;-72
2023/01/03 23:59:52;;;;;;;2.53;2.30;;;;;;;;;;8216536;28;20517;-72
